Time;durP1;ratioP1;P1;durP2;ratioP2;P2;SDS_P1;SDS_P2;PMS_P1;PMS_P2;Temp;Humidity;BMP_temperature;BMP_pressure;BME280_temperature;BME280_humidity;BME280_pressure;Samples;Min_cycle;Max_cycle;Signal;HPM_P1;HPM_P2
2023/10/26 00:01:46;;;;;;;2.47;1.37;;;;;;;11.54;76.82;94557.81;4986847;28;20179;-72
2023/10/26 00:04:12;;;;;;;3.30;1.40;;;;;;;11.61;75.89;94553.75;4986537;28;20177;-72
2023/10/26 00:06:37;;;;;;;1.70;1.20;;;;;;;11.75;74.89;94560.56;4986840;28;20200;-74
2023/10/26 00:09:03;;;;;;;2.20;1.10;;;;;;;11.74;74.98;94549.25;4986820;28;20258;-74
2023/10/26 00:11:30;;;;;;;1.97;1.07;;;;;;;11.77;74.42;94545.53;4987122;28;20663;-71
2023/10/26 00:13:55;;;;;;;1.77;1.00;;;;;;;11.64;75.53;94549.09;4986516;28;20173;-71
2023/10/26 00:16:21;;;;;;;1.53;0.97;;;;;;;11.64;74.83;94548.25;4986651;28;20538;-72
2023/10/26 00:18:46;;;;;;;1.60;0.93;;;;;;;11.56;75.53;94553.28;4986637;28;20192;-73
2023/10/26 00:21:12;;;;;;;1.80;1.30;;;;;;;11.67;75.15;94545.41;4986970;28;20536;-72
2023/10/26 00:23:37;;;;;;;1.50;1.00;;;;;;;11.59;75.27;94545.16;4986666;28;20187;-74
2023/10/26 00:26:03;;;;;;;4.67;1.10;;;;;;;11.62;75.03;94553.66;4986714;28;20318;-72
2023/10/26 00:28:28;;;;;;;1.83;1.07;;;;;;;11.60;75.35;94554.72;4989069;28;20192;-72
2023/10/26 00:30:53;;;;;;;1.27;0.90;;;;;;;11.63;75.24;94554.47;4990406;28;20247;-72
2023/10/26 00:33:19;;;;;;;1.63;1.00;;;;;;;11.69;74.51;94555.78;4990463;28;20191;-73
2023/10/26 00:35:45;;;;;;;2.37;1.50;;;;;;;11.64;74.86;94551.72;4990098;28;20228;-72
2023/10/26 00:38:10;;;;;;;1.47;1.17;;;;;;;11.57;74.97;94553.16;4990477;28;20173;-71
2023/10/26 00:40:35;;;;;;;1.60;0.90;;;;;;;11.66;75.13;94557.69;4990610;28;20176;-72
2023/10/26 00:43:03;;;;;;;1.90;1.10;;;;;;;11.53;75.86;94558.78;4990742;28;20260;-72
2023/10/26 00:45:30;;;;;;;2.80;1.40;;;;;;;11.50;75.61;94559.84;4990217;28;20691;-72
2023/10/26 00:47:56;;;;;;;2.07;1.23;;;;;;;11.57;75.35;94558.41;4991192;28;20470;-72
2023/10/26 00:50:22;;;;;;;4.20;1.23;;;;;;;11.39;75.54;94554.59;4991318;28;20503;-71
2023/10/26 00:52:47;;;;;;;1.40;0.90;;;;;;;11.43;76.03;94550.75;4990095;28;20176;-72
2023/10/26 00:55:13;;;;;;;2.83;1.10;;;;;;;11.37;75.79;94553.88;4989888;28;20192;-72
2023/10/26 00:57:38;;;;;;;2.37;1.30;;;;;;;11.38;75.38;94558.97;4989923;28;20243;-72
2023/10/26 01:00:07;;;;;;;2.87;1.33;;;;;;;11.35;75.82;94566.28;4990215;28;20171;-72
2023/10/26 01:02:32;;;;;;;2.60;1.30;;;;;;;11.31;75.72;94575.34;4990247;28;20185;-72
2023/10/26 01:04:58;;;;;;;4.13;1.43;;;;;;;11.30;76.19;94571.03;4990119;28;20806;-73
2023/10/26 01:07:23;;;;;;;1.77;0.90;;;;;;;11.43;75.67;94561.25;4990066;28;20211;-73
2023/10/26 01:09:48;;;;;;;5.50;1.27;;;;;;;11.34;75.86;94568.06;4989939;28;20280;-71
2023/10/26 01:12:14;;;;;;;2.70;1.33;;;;;;;11.39;75.42;94567.72;4989736;28;20173;-72
2023/10/26 01:14:39;;;;;;;1.53;0.90;;;;;;;11.31;75.58;94570.91;4989377;28;20177;-73
2023/10/26 01:17:05;;;;;;;4.30;1.00;;;;;;;11.28;75.77;94572.94;4989421;28;20283;-71
2023/10/26 01:19:46;;;;;;;1.63;1.10;;;;;;;11.30;75.93;94571.88;4989515;28;20173;-71
2023/10/26 01:22:11;;;;;;;1.50;1.00;;;;;;;11.30;75.65;94571.03;4989639;28;20190;-71
2023/10/26 01:24:37;;;;;;;2.30;1.07;;;;;;;11.35;75.23;94558.41;4972364;28;20424;-72
2023/10/26 01:27:04;;;;;;;5.33;1.10;;;;;;;11.23;75.57;94565.41;4989719;28;20208;-71
2023/10/26 01:29:30;;;;;;;5.87;1.30;;;;;;;11.21;76.29;94570.78;4989745;28;20514;-73
2023/10/26 01:31:56;;;;;;;3.73;1.03;;;;;;;11.29;75.02;94564.09;4989580;28;20420;-71
2023/10/26 01:34:21;;;;;;;2.80;1.00;;;;;;;11.21;75.60;94565.53;4989639;28;20176;-72
2023/10/26 01:36:46;;;;;;;1.30;0.87;;;;;;;11.20;75.59;94568.28;4989614;28;20192;-73
2023/10/26 01:39:13;;;;;;;1.40;0.93;;;;;;;11.26;75.21;94567.81;4988260;28;20180;-71
2023/10/26 01:41:38;;;;;;;1.63;0.90;;;;;;;11.24;74.88;94556.56;4989034;28;20183;-72
2023/10/26 01:44:04;;;;;;;1.57;1.10;;;;;;;11.27;75.29;94560.75;4988901;28;20412;-71
2023/10/26 01:46:29;;;;;;;1.67;1.10;;;;;;;11.25;75.09;94557.44;4988986;28;20199;-72
2023/10/26 01:48:55;;;;;;;1.50;0.80;;;;;;;11.22;74.84;94556.72;4989040;28;20259;-72
2023/10/26 01:51:20;;;;;;;3.50;1.00;;;;;;;11.20;74.66;94552.53;4988826;28;20615;-73
2023/10/26 01:53:46;;;;;;;1.90;0.90;;;;;;;11.20;74.63;94560.41;4988479;28;20181;-71
2023/10/26 01:56:11;;;;;;;1.87;0.90;;;;;;;11.15;74.85;94547.63;4988558;28;20679;-71
2023/10/26 01:58:37;;;;;;;1.13;0.80;;;;;;;11.32;74.68;94551.59;4987133;28;20216;-73
2023/10/26 02:01:02;;;;;;;1.60;0.90;;;;;;;11.35;74.14;94547.88;4989095;28;20215;-71
2023/10/26 02:03:28;;;;;;;3.23;1.00;;;;;;;11.26;74.05;94553.84;4989035;28;20177;-71
2023/10/26 02:05:53;;;;;;;1.73;0.97;;;;;;;11.33;73.81;94550.63;4988466;28;20204;-71
2023/10/26 02:08:19;;;;;;;1.97;0.80;;;;;;;11.36;73.60;94553.03;4988628;28;20275;-73
2023/10/26 02:10:44;;;;;;;1.93;0.90;;;;;;;11.26;74.26;94551.22;4988587;28;20295;-73
2023/10/26 02:13:10;;;;;;;1.93;0.80;;;;;;;11.18;75.16;94552.63;4988513;28;20235;-72
2023/10/26 02:15:35;;;;;;;3.03;0.93;;;;;;;11.17;74.56;94548.34;4987983;28;20205;-72
2023/10/26 02:18:01;;;;;;;4.20;0.80;;;;;;;11.23;74.61;94545.25;4988517;28;20181;-72
2023/10/26 02:20:27;;;;;;;1.73;0.80;;;;;;;11.21;74.99;94554.19;4988815;28;20706;-75
2023/10/26 02:22:52;;;;;;;2.50;1.10;;;;;;;11.20;75.17;94548.13;4988767;28;20499;-72
2023/10/26 02:25:17;;;;;;;1.93;0.90;;;;;;;11.21;74.80;94541.91;4988671;28;20189;-73
2023/10/26 02:27:43;;;;;;;2.63;1.50;;;;;;;11.23;74.45;94528.66;4988809;28;20267;-72
2023/10/26 02:30:08;;;;;;;1.63;1.00;;;;;;;11.19;74.21;94530.66;4988430;28;20204;-71
2023/10/26 02:32:34;;;;;;;4.00;1.27;;;;;;;11.22;74.57;94530.47;4988111;28;20267;-71
2023/10/26 02:34:59;;;;;;;2.10;0.90;;;;;;;11.32;73.89;94533.22;4988583;28;20271;-73
2023/10/26 02:37:25;;;;;;;1.63;0.90;;;;;;;11.22;74.34;94533.09;4990524;28;20177;-72
2023/10/26 02:39:50;;;;;;;1.40;1.10;;;;;;;11.24;74.46;94525.06;4987888;28;20259;-72
2023/10/26 02:42:15;;;;;;;3.10;1.10;;;;;;;11.26;74.66;94531.03;4987843;28;20212;-72
2023/10/26 02:44:41;;;;;;;3.00;1.20;;;;;;;11.28;74.75;94528.31;4987832;28;20177;-72
2023/10/26 02:47:06;;;;;;;1.73;1.07;;;;;;;11.20;75.06;94528.91;4988184;28;20200;-72
2023/10/26 02:49:31;;;;;;;1.60;0.90;;;;;;;11.15;75.27;94537.13;4988063;28;20208;-73
2023/10/26 02:51:57;;;;;;;4.40;1.33;;;;;;;11.14;75.44;94535.44;4987508;28;20232;-72
2023/10/26 02:54:27;;;;;;;4.63;1.07;;;;;;;11.11;75.23;94534.84;4987618;28;20180;-72
2023/10/26 02:56:52;;;;;;;3.77;1.23;;;;;;;11.10;74.95;94538.41;4987455;28;20208;-72
2023/10/26 02:59:18;;;;;;;1.77;1.20;;;;;;;11.16;75.21;94528.28;4987889;28;20412;-72
2023/10/26 03:01:43;;;;;;;1.30;0.90;;;;;;;11.16;74.40;94544.03;4987473;28;20204;-71
2023/10/26 03:04:08;;;;;;;3.17;1.10;;;;;;;11.12;75.17;94547.84;4987332;28;20645;-70
2023/10/26 03:06:38;;;;;;;3.50;1.07;;;;;;;11.07;74.84;94549.97;4987596;28;20283;-70
2023/10/26 03:09:04;;;;;;;4.07;0.90;;;;;;;11.11;75.20;94545.34;4987264;28;20203;-72
2023/10/26 03:11:30;;;;;;;2.90;1.17;;;;;;;11.10;75.45;94543.66;4987455;28;20474;-72
2023/10/26 03:13:56;;;;;;;4.83;1.27;;;;;;;11.11;75.62;94540.09;4987289;28;20419;-73
2023/10/26 03:16:21;;;;;;;3.10;1.40;;;;;;;11.13;75.60;94543.44;4987502;28;20458;-70
2023/10/26 03:18:46;;;;;;;6.23;1.50;;;;;;;11.09;75.58;94542.00;4987345;28;20275;-71
2023/10/26 03:21:14;;;;;;;1.50;1.10;;;;;;;11.13;75.34;94544.28;4987434;28;20252;-71
2023/10/26 03:23:39;;;;;;;2.40;1.47;;;;;;;10.98;75.38;94541.03;4986952;28;20190;-71
2023/10/26 03:26:09;;;;;;;4.70;1.10;;;;;;;11.02;75.23;94536.38;4987496;28;20428;-71
2023/10/26 03:28:34;;;;;;;2.30;1.20;;;;;;;11.01;75.40;94534.72;4987221;28;20196;-73
2023/10/26 03:31:00;;;;;;;2.13;0.90;;;;;;;10.91;75.92;94531.91;4987253;28;20475;-71
2023/10/26 03:33:26;;;;;;;1.43;1.00;;;;;;;10.92;75.54;94540.66;4987052;28;20177;-71
2023/10/26 03:35:51;;;;;;;1.10;0.80;;;;;;;10.93;75.98;94543.13;4986719;28;20211;-72
2023/10/26 03:38:16;;;;;;;3.30;1.13;;;;;;;10.85;75.98;94536.81;4987215;28;20184;-72
2023/10/26 03:40:42;;;;;;;1.40;0.90;;;;;;;10.89;76.26;94533.00;4987189;28;20650;-72
2023/10/26 03:43:07;;;;;;;2.50;0.90;;;;;;;10.88;75.91;94531.31;4987195;28;20243;-72
2023/10/26 03:45:32;;;;;;;1.30;1.10;;;;;;;10.86;76.54;94523.56;4986972;28;20199;-72
2023/10/26 03:47:59;;;;;;;1.37;0.90;;;;;;;10.78;75.78;94518.91;4988958;28;20185;-72
2023/10/26 03:50:24;;;;;;;5.33;1.83;;;;;;;10.79;76.13;94524.97;4988734;28;20208;-72
2023/10/26 03:52:50;;;;;;;3.20;1.30;;;;;;;10.79;76.25;94525.84;4988396;28;21255;-72
2023/10/26 03:55:15;;;;;;;2.90;1.60;;;;;;;10.75;76.40;94527.00;4988405;28;20201;-72
2023/10/26 03:57:41;;;;;;;2.80;1.50;;;;;;;10.71;76.79;94520.31;4987678;28;20607;-71
2023/10/26 04:00:09;;;;;;;4.33;1.30;;;;;;;10.86;76.23;94525.34;4987185;28;20186;-72
2023/10/26 04:02:35;;;;;;;2.07;1.20;;;;;;;10.68;76.66;94523.16;4988301;28;20185;-73
2023/10/26 04:05:00;;;;;;;2.27;1.20;;;;;;;10.88;76.53;94513.78;4991266;28;20965;-73
2023/10/26 04:07:27;;;;;;;2.10;1.30;;;;;;;10.59;76.78;94518.59;4991949;28;20215;-73
2023/10/26 04:09:52;;;;;;;2.07;1.30;;;;;;;10.30;78.66;94518.97;4990849;28;20726;-72
2023/10/26 04:12:18;;;;;;;6.60;1.40;;;;;;;10.22;78.76;94526.50;4990792;28;20416;-70
2023/10/26 04:14:43;;;;;;;3.43;1.60;;;;;;;10.25;78.47;94531.53;4990594;28;20173;-72
2023/10/26 04:17:09;;;;;;;2.90;1.47;;;;;;;10.34;78.71;94530.88;4990786;28;20961;-72
2023/10/26 04:19:35;;;;;;;2.43;1.60;;;;;;;10.30;78.61;94528.59;4990800;28;20188;-72
2023/10/26 04:22:00;;;;;;;2.77;1.30;;;;;;;10.42;78.25;94525.09;4991018;28;20811;-73
2023/10/26 04:24:26;;;;;;;5.80;1.33;;;;;;;10.32;78.56;94526.69;4991038;28;20177;-73
2023/10/26 04:26:51;;;;;;;7.10;3.03;;;;;;;10.41;77.73;94533.06;4990794;28;20723;-73
2023/10/26 04:29:16;;;;;;;4.30;2.60;;;;;;;10.51;78.08;94531.44;4990769;28;20200;-71
2023/10/26 04:31:42;;;;;;;3.90;1.97;;;;;;;10.44;77.96;94532.81;4991433;28;20227;-72
2023/10/26 04:34:07;;;;;;;3.40;2.20;;;;;;;10.43;77.99;94534.63;4990234;28;20643;-73
2023/10/26 04:36:33;;;;;;;5.83;1.73;;;;;;;10.42;78.28;94538.19;4990346;28;20189;-72
2023/10/26 04:38:59;;;;;;;3.30;2.27;;;;;;;10.33;78.06;94534.47;4990518;28;20254;-72
2023/10/26 04:41:24;;;;;;;3.83;2.13;;;;;;;10.35;77.99;94526.50;4972785;28;20177;-72
2023/10/26 04:43:50;;;;;;;2.63;1.67;;;;;;;10.49;77.70;94521.06;4990431;28;20667;-75
2023/10/26 04:46:15;;;;;;;3.60;2.03;;;;;;;10.37;78.24;94521.97;4985114;28;20359;-71
2023/10/26 04:48:40;;;;;;;2.83;2.07;;;;;;;10.34;78.80;94525.63;4989096;28;20180;-72
2023/10/26 04:51:06;;;;;;;3.43;2.00;;;;;;;10.48;77.67;94518.53;4989463;28;20516;-72
2023/10/26 04:53:32;;;;;;;3.37;2.17;;;;;;;10.47;77.78;94507.22;4990169;28;20185;-72
2023/10/26 04:55:57;;;;;;;4.67;2.23;;;;;;;10.46;78.50;94512.56;4989721;28;20203;-71
2023/10/26 04:58:23;;;;;;;7.33;2.13;;;;;;;10.56;77.72;94519.66;4972326;28;20184;-72
2023/10/26 05:00:48;;;;;;;3.27;2.30;;;;;;;10.51;78.00;94511.31;4989503;28;20183;-73
2023/10/26 05:03:14;;;;;;;3.40;2.23;;;;;;;10.56;77.83;94517.03;4977199;28;20252;-71
2023/10/26 05:05:39;;;;;;;4.87;2.00;;;;;;;10.62;77.28;94514.91;4987483;28;20552;-73
2023/10/26 05:08:04;;;;;;;3.30;1.93;;;;;;;10.59;77.66;94510.72;4988059;28;20172;-74
2023/10/26 05:10:30;;;;;;;7.00;1.97;;;;;;;10.62;76.80;94501.78;4987633;28;20200;-72
2023/10/26 05:12:55;;;;;;;1.90;1.33;;;;;;;10.65;77.40;94512.88;4987956;28;20184;-72
2023/10/26 05:15:21;;;;;;;3.40;1.60;;;;;;;10.65;77.37;94509.44;4987320;28;20200;-73
2023/10/26 05:17:47;;;;;;;4.87;1.83;;;;;;;10.65;76.99;94504.19;4987646;28;20252;-71
2023/10/26 05:20:12;;;;;;;4.60;1.73;;;;;;;10.68;76.63;94506.59;4973992;28;20180;-72
2023/10/26 05:22:37;;;;;;;3.07;1.93;;;;;;;10.67;76.97;94500.50;4986049;28;20975;-69
2023/10/26 05:25:08;;;;;;;2.77;2.23;;;;;;;10.66;76.66;94505.88;4975917;28;20185;-69
2023/10/26 05:27:33;;;;;;;3.60;2.10;;;;;;;10.70;77.00;94502.03;4986220;28;20196;-68
2023/10/26 05:29:59;;;;;;;3.07;1.60;;;;;;;10.71;77.40;94499.31;4984040;28;20475;-68
2023/10/26 05:32:26;;;;;;;2.43;1.50;;;;;;;10.77;76.40;94498.88;4975864;28;20196;-68
2023/10/26 05:34:51;;;;;;;8.10;2.10;;;;;;;10.76;77.01;94499.81;4973897;28;20420;-68
2023/10/26 05:37:16;;;;;;;2.77;1.50;;;;;;;10.78;76.79;94511.03;4975346;28;20459;-68
2023/10/26 05:39:42;;;;;;;6.20;2.37;;;;;;;10.82;77.10;94506.41;4966903;28;20244;-68
2023/10/26 05:42:07;;;;;;;5.27;2.80;;;;;;;10.84;77.21;94501.84;4972626;28;20182;-67
2023/10/26 05:44:32;;;;;;;6.60;2.50;;;;;;;10.95;77.06;94486.13;4980463;28;20199;-66
2023/10/26 05:46:59;;;;;;;3.90;2.17;;;;;;;10.87;77.32;94490.31;4978881;28;20196;-66
2023/10/26 05:49:25;;;;;;;5.00;2.43;;;;;;;10.90;77.49;94497.94;4983897;28;20719;-67
2023/10/26 05:51:51;;;;;;;6.00;3.00;;;;;;;10.87;77.47;94499.00;4983650;28;20590;-66
2023/10/26 05:54:16;;;;;;;12.87;3.37;;;;;;;10.98;77.56;94493.78;4986654;28;20473;-67
2023/10/26 05:56:41;;;;;;;12.20;3.67;;;;;;;10.98;77.59;94488.53;4982318;28;20220;-67
2023/10/26 05:59:07;;;;;;;6.50;3.27;;;;;;;10.98;77.97;94487.69;4979538;28;20173;-66
2023/10/26 06:01:32;;;;;;;8.17;2.50;;;;;;;10.97;78.40;94478.16;4986605;28;20548;-67
2023/10/26 06:03:57;;;;;;;6.40;2.33;;;;;;;10.86;78.43;94497.31;4985382;28;20225;-67
2023/10/26 06:06:23;;;;;;;3.70;3.17;;;;;;;10.87;78.20;94492.94;4984330;28;20228;-69
2023/10/26 06:08:48;;;;;;;5.40;3.60;;;;;;;10.85;79.32;94495.66;4985003;28;20188;-68
2023/10/26 06:11:14;;;;;;;9.10;5.20;;;;;;;10.83;78.80;94481.81;4986159;28;20196;-68
2023/10/26 06:13:40;;;;;;;6.27;4.20;;;;;;;10.92;79.10;94478.50;4988252;28;20184;-68
2023/10/26 06:16:06;;;;;;;7.03;3.47;;;;;;;10.73;79.03;94476.44;4985810;28;20488;-67
2023/10/26 06:18:32;;;;;;;4.10;3.20;;;;;;;10.74;79.44;94475.47;4984939;28;20196;-68
2023/10/26 06:21:01;;;;;;;7.80;5.13;;;;;;;10.84;78.83;94472.97;4992633;28;20235;-68
2023/10/26 06:23:29;;;;;;;7.87;5.00;;;;;;;10.80;79.38;94477.63;4995423;28;20439;-68
2023/10/26 06:25:58;;;;;;;10.87;4.77;;;;;;;10.86;79.04;94478.13;4981435;28;20455;-68
2023/10/26 06:28:24;;;;;;;18.37;5.90;;;;;;;10.88;78.91;94474.44;4981170;28;20441;-67
2023/10/26 06:30:50;;;;;;;8.70;4.30;;;;;;;10.94;78.94;94467.91;4989468;28;20561;-67
2023/10/26 06:33:15;;;;;;;7.00;4.60;;;;;;;10.97;78.75;94481.59;4991227;28;20436;-67
2023/10/26 06:35:41;;;;;;;6.60;4.43;;;;;;;10.86;79.89;94483.38;4984060;28;20667;-66
2023/10/26 06:38:06;;;;;;;5.37;3.70;;;;;;;10.89;78.88;94468.25;4985669;28;20180;-67
2023/10/26 06:40:32;;;;;;;5.13;3.23;;;;;;;10.84;79.61;94461.66;4967928;28;20802;-67
2023/10/26 06:42:57;;;;;;;11.03;5.83;;;;;;;10.84;79.33;94482.66;4985237;28;20180;-67
2023/10/26 06:45:22;;;;;;;3.00;2.60;;;;;;;10.86;79.23;94486.81;4985435;28;20240;-67
2023/10/26 06:47:48;;;;;;;6.63;5.10;;;;;;;10.75;80.51;94492.91;4987801;28;20188;-67
2023/10/26 06:50:13;;;;;;;11.23;3.47;;;;;;;10.79;80.03;94481.22;4987755;28;20311;-68
2023/10/26 06:52:38;;;;;;;12.93;4.83;;;;;;;10.95;79.77;94487.91;4987660;28;20184;-66
2023/10/26 06:55:04;;;;;;;5.07;3.27;;;;;;;11.00;79.61;94481.34;4988491;28;20184;-68
2023/10/26 06:57:33;;;;;;;9.20;3.30;;;;;;;11.04;78.72;94481.97;4987271;28;20188;-68
2023/10/26 06:59:58;;;;;;;11.13;3.50;;;;;;;11.05;79.27;94478.38;4986958;28;20176;-68
2023/10/26 07:02:24;;;;;;;8.40;4.00;;;;;;;11.01;79.57;94487.47;4987000;28;20474;-67
2023/10/26 07:04:49;;;;;;;8.47;4.37;;;;;;;10.99;80.19;94490.19;4986890;28;20176;-67
2023/10/26 07:07:14;;;;;;;5.60;3.40;;;;;;;11.13;80.35;94498.81;4987279;28;20385;-68
2023/10/26 07:09:40;;;;;;;11.30;3.77;;;;;;;11.19;79.41;94496.53;4987137;28;20230;-68
2023/10/26 07:12:06;;;;;;;8.47;3.10;;;;;;;11.23;78.72;94492.72;4987797;28;20247;-68
2023/10/26 07:14:31;;;;;;;11.13;3.80;;;;;;;11.18;79.59;94492.25;4987063;28;20597;-68
2023/10/26 07:16:57;;;;;;;4.50;3.30;;;;;;;11.31;79.70;94486.06;4987180;28;20443;-68
2023/10/26 07:19:22;;;;;;;11.07;3.53;;;;;;;11.39;79.22;94484.50;4987213;28;20165;-68
2023/10/26 07:21:47;;;;;;;11.03;3.53;;;;;;;11.46;79.14;94495.38;4987371;28;20699;-68
2023/10/26 07:24:13;;;;;;;7.13;2.93;;;;;;;11.40;78.70;94488.78;4987301;28;20263;-68
2023/10/26 07:26:38;;;;;;;16.23;4.67;;;;;;;11.52;78.99;94499.31;4987173;28;20276;-68
2023/10/26 07:29:04;;;;;;;5.80;3.60;;;;;;;11.46;79.73;94487.50;4987132;28;20208;-67
2023/10/26 07:31:29;;;;;;;6.20;3.50;;;;;;;11.51;78.32;94487.16;4987279;28;20243;-68
2023/10/26 07:33:54;;;;;;;4.10;2.60;;;;;;;11.37;79.51;94481.16;4986376;28;20227;-68
2023/10/26 07:36:20;;;;;;;3.77;3.00;;;;;;;11.38;79.44;94479.38;4986470;28;20197;-67
2023/10/26 07:38:46;;;;;;;12.00;4.40;;;;;;;11.39;79.09;94486.31;4986334;28;20722;-68
2023/10/26 07:41:11;;;;;;;7.83;3.40;;;;;;;11.45;79.38;94491.06;4987065;28;20634;-68
2023/10/26 07:43:37;;;;;;;8.43;3.90;;;;;;;11.38;80.07;94490.69;4986723;28;20201;-67
2023/10/26 07:46:03;;;;;;;5.60;4.27;;;;;;;11.42;79.70;94486.06;4987003;28;20192;-67
2023/10/26 07:48:28;;;;;;;7.03;4.20;;;;;;;11.32;80.97;94488.56;4986585;28;20176;-67
2023/10/26 07:50:55;;;;;;;7.53;4.70;;;;;;;11.44;80.85;94495.50;4986992;28;20192;-67
2023/10/26 07:53:21;;;;;;;3.40;3.07;;;;;;;11.22;81.50;94485.81;4986798;28;20314;-68
2023/10/26 07:55:47;;;;;;;3.80;2.70;;;;;;;11.23;82.20;94484.84;4986577;28;21153;-68
2023/10/26 07:58:12;;;;;;;3.30;2.10;;;;;;;11.29;81.84;94490.59;4986445;28;20416;-68
2023/10/26 08:00:38;;;;;;;3.20;2.30;;;;;;;11.32;81.31;94482.50;4986430;28;20596;-68
2023/10/26 08:03:03;;;;;;;4.53;2.70;;;;;;;11.31;82.15;94483.44;4986805;28;20172;-68
2023/10/26 08:05:30;;;;;;;3.10;2.60;;;;;;;11.32;82.36;94475.44;4986430;28;20904;-67
2023/10/26 08:07:56;;;;;;;4.77;2.93;;;;;;;11.34;82.43;94486.66;4986801;28;20165;-68
2023/10/26 08:10:24;;;;;;;3.40;2.20;;;;;;;11.27;83.20;94484.59;4986765;28;20465;-67
2023/10/26 08:12:53;;;;;;;2.87;2.10;;;;;;;11.22;83.06;94491.06;4987229;28;20227;-67
2023/10/26 08:15:22;;;;;;;6.33;2.50;;;;;;;11.29;82.39;94491.44;4986799;28;20458;-68
2023/10/26 08:17:48;;;;;;;3.07;2.27;;;;;;;11.21;82.87;94493.81;4987237;28;20466;-67
2023/10/26 08:20:14;;;;;;;2.53;2.27;;;;;;;11.33;82.85;94494.66;4987301;28;20414;-68
2023/10/26 08:22:39;;;;;;;4.40;2.60;;;;;;;11.31;82.98;94500.00;4986949;28;20851;-68
2023/10/26 08:25:05;;;;;;;11.13;2.90;;;;;;;11.28;83.25;94500.25;4986791;28;20177;-69
2023/10/26 08:27:35;;;;;;;13.43;3.43;;;;;;;11.32;84.11;94480.69;4985956;28;20212;-68
2023/10/26 08:30:02;;;;;;;5.80;3.00;;;;;;;11.20;84.47;94486.91;4986534;28;20961;-68
2023/10/26 08:32:28;;;;;;;4.00;2.20;;;;;;;11.16;85.25;94478.41;4986313;28;20563;-68
2023/10/26 08:34:53;;;;;;;3.90;2.60;;;;;;;11.34;83.95;94468.28;4986075;28;20412;-68
2023/10/26 08:37:18;;;;;;;5.17;3.07;;;;;;;11.30;83.94;94481.75;4986763;28;20173;-67
2023/10/26 08:39:44;;;;;;;5.50;2.60;;;;;;;11.33;84.05;94471.84;4986578;28;20181;-68
2023/10/26 08:42:09;;;;;;;3.33;2.70;;;;;;;11.26;84.61;94469.81;4986503;28;20173;-68
2023/10/26 08:44:36;;;;;;;3.03;2.57;;;;;;;11.44;84.64;94473.66;4986103;28;20242;-68
2023/10/26 08:47:05;;;;;;;6.17;4.23;;;;;;;11.51;83.53;94479.25;4986492;28;20209;-68
2023/10/26 08:49:32;;;;;;;3.40;2.97;;;;;;;11.38;84.40;94469.69;4989049;28;20513;-67
2023/10/26 08:51:59;;;;;;;8.37;2.70;;;;;;;11.53;84.04;94472.94;4990336;28;20412;-68
2023/10/26 08:54:28;;;;;;;13.87;3.53;;;;;;;11.56;84.50;94477.09;4990166;28;20420;-68
2023/10/26 08:56:54;;;;;;;7.53;3.60;;;;;;;11.55;84.75;94473.66;4990247;28;20440;-68
2023/10/26 08:59:19;;;;;;;8.73;2.93;;;;;;;11.54;84.52;94474.59;4989945;28;21254;-68
2023/10/26 09:01:47;;;;;;;6.77;2.63;;;;;;;11.50;84.54;94478.41;4990330;28;20423;-68
2023/10/26 09:04:14;;;;;;;5.00;2.97;;;;;;;11.70;84.67;94483.91;4990135;28;20173;-67
2023/10/26 09:06:47;;;;;;;7.80;3.30;;;;;;;11.75;84.63;94492.25;4989985;28;20428;-67
2023/10/26 09:09:14;;;;;;;10.33;3.20;;;;;;;11.82;84.60;94496.06;4972511;28;21031;-68
2023/10/26 09:11:40;;;;;;;4.20;2.80;;;;;;;11.99;84.26;94490.31;4990096;28;20515;-67
2023/10/26 09:14:12;;;;;;;3.37;2.83;;;;;;;12.11;83.74;94488.50;4989527;28;20895;-69
2023/10/26 09:16:38;;;;;;;4.20;2.80;;;;;;;12.14;84.40;94482.16;4989782;28;20196;-68
2023/10/26 09:19:03;;;;;;;4.30;3.20;;;;;;;12.17;84.03;94482.75;4990155;28;20419;-68
2023/10/26 09:21:29;;;;;;;4.77;2.97;;;;;;;12.24;84.45;94465.53;4991031;28;20161;-67
2023/10/26 09:23:54;;;;;;;4.53;3.27;;;;;;;12.27;84.03;94469.69;4990943;28;20260;-69
2023/10/26 09:26:20;;;;;;;5.23;2.80;;;;;;;12.27;84.63;94483.69;4991014;28;20939;-68
2023/10/26 09:28:49;;;;;;;10.93;3.23;;;;;;;12.35;84.07;94480.41;4989985;28;20189;-68
2023/10/26 09:31:15;;;;;;;3.00;2.57;;;;;;;12.33;84.51;94477.09;4989871;28;20452;-68
2023/10/26 09:33:40;;;;;;;4.43;2.40;;;;;;;12.30;85.16;94472.06;4989334;28;20423;-68
2023/10/26 09:36:13;;;;;;;2.97;1.40;;;;;;;12.33;84.46;94476.25;4989156;28;20623;-68
2023/10/26 09:38:39;;;;;;;4.77;1.60;;;;;;;12.34;85.08;94472.66;4988976;28;20176;-68
2023/10/26 09:41:24;;;;;;;1.97;1.60;;;;;;;12.37;84.96;94470.59;4989409;28;20408;-69
2023/10/26 09:43:49;;;;;;;4.23;1.40;;;;;;;12.38;85.14;94474.06;4988665;28;20222;-68
2023/10/26 09:46:17;;;;;;;4.00;1.50;;;;;;;12.39;85.60;94476.59;4988816;28;20551;-67
2023/10/26 09:48:43;;;;;;;2.20;1.40;;;;;;;12.41;85.13;94479.94;4988683;28;20550;-69
2023/10/26 09:51:10;;;;;;;3.03;1.33;;;;;;;12.36;85.27;94476.84;4989004;28;20460;-68
2023/10/26 09:53:41;;;;;;;2.00;1.10;;;;;;;12.36;85.61;94476.84;4988856;28;20169;-68
2023/10/26 09:56:11;;;;;;;5.13;1.00;;;;;;;12.27;85.78;94467.91;4988489;28;20934;-68
2023/10/26 09:58:41;;;;;;;6.30;1.27;;;;;;;12.33;85.21;94481.50;4988502;28;21195;-68
2023/10/26 10:01:34;;;;;;;2.03;1.07;;;;;;;12.32;85.80;94466.69;4987556;28;20416;-68
2023/10/26 10:04:04;;;;;;;1.63;1.10;;;;;;;12.41;85.33;94474.66;4985126;28;20428;-68
2023/10/26 10:06:50;;;;;;;4.23;1.43;;;;;;;12.42;84.90;94464.97;4988486;28;21017;-68
2023/10/26 10:09:19;;;;;;;20.87;3.87;;;;;;;12.41;85.23;94445.72;4988591;28;20995;-68
2023/10/26 10:11:45;;;;;;;6.70;2.23;;;;;;;12.44;85.48;94453.34;4988919;28;20408;-67
2023/10/26 10:14:49;;;;;;;6.87;1.27;;;;;;;12.42;85.95;94455.28;4988617;28;20900;-68
2023/10/26 10:17:15;;;;;;;3.73;1.60;;;;;;;12.46;85.66;94456.69;4988907;28;20622;-66
2023/10/26 10:19:43;;;;;;;2.03;1.30;;;;;;;12.53;85.29;94458.84;4989009;28;20416;-69
2023/10/26 10:22:39;;;;;;;5.00;1.23;;;;;;;12.51;85.70;94448.44;4988863;28;20450;-68
2023/10/26 10:25:05;;;;;;;2.90;1.43;;;;;;;12.45;86.21;94452.41;4988328;28;20392;-68
2023/10/26 10:27:31;;;;;;;3.10;1.63;;;;;;;12.59;85.80;94451.28;4988433;28;20531;-68
2023/10/26 10:29:57;;;;;;;2.93;2.63;;;;;;;12.66;85.55;94441.91;4988400;28;20482;-68
2023/10/26 10:32:44;;;;;;;2.80;1.87;;;;;;;12.69;85.66;94435.56;4988363;28;20168;-68
2023/10/26 10:35:11;;;;;;;3.20;1.83;;;;;;;12.81;85.22;94426.63;4988098;28;20414;-66
2023/10/26 10:37:38;;;;;;;2.10;1.27;;;;;;;12.97;84.05;94427.94;4988230;28;20443;-68
2023/10/26 10:40:16;;;;;;;1.77;1.30;;;;;;;12.99;84.00;94411.06;4987890;28;20515;-68
2023/10/26 10:42:51;;;;;;;6.30;2.33;;;;;;;13.18;83.22;94412.09;4987929;28;20408;-67
2023/10/26 10:45:18;;;;;;;2.10;1.37;;;;;;;13.38;82.89;94407.81;4988030;28;20443;-68
2023/10/26 10:47:45;;;;;;;12.13;2.30;;;;;;;13.40;82.02;94409.34;4988226;28;20506;-68
2023/10/26 10:50:29;;;;;;;12.20;3.97;;;;;;;13.46;81.74;94394.78;4988053;28;20452;-68
2023/10/26 10:52:55;;;;;;;16.53;3.37;;;;;;;13.48;82.05;94401.59;4987517;28;20416;-69
2023/10/26 10:55:28;;;;;;;17.63;3.83;;;;;;;13.59;82.05;94391.94;4987749;28;20436;-68
2023/10/26 10:57:55;;;;;;;4.33;2.23;;;;;;;13.69;81.70;94403.31;4970254;28;20173;-68
2023/10/26 11:00:20;;;;;;;7.50;2.50;;;;;;;13.76;82.12;94400.00;4987500;28;20478;-69
2023/10/26 11:02:49;;;;;;;11.33;2.40;;;;;;;13.90;81.92;94395.31;4988975;28;20412;-68
2023/10/26 11:05:16;;;;;;;2.90;2.00;;;;;;;14.03;80.58;94398.53;4987425;28;20176;-69
2023/10/26 11:07:42;;;;;;;3.10;1.70;;;;;;;14.21;80.12;94393.38;4987155;28;20415;-68
2023/10/26 11:10:08;;;;;;;4.50;3.43;;;;;;;14.48;78.68;94390.06;4987499;28;20452;-67
2023/10/26 11:12:34;;;;;;;6.70;2.40;;;;;;;14.55;78.80;94387.69;4987472;28;20440;-68
2023/10/26 11:15:00;;;;;;;3.37;2.33;;;;;;;14.64;78.31;94386.03;4987178;28;20438;-67
2023/10/26 11:17:27;;;;;;;2.13;1.93;;;;;;;14.68;77.52;94385.59;4987303;28;20179;-67
2023/10/26 11:19:53;;;;;;;4.83;2.53;;;;;;;14.82;77.61;94377.22;4987482;28;20181;-67
2023/10/26 11:22:20;;;;;;;2.30;1.73;;;;;;;14.72;77.14;94378.25;4986956;28;20404;-69
2023/10/26 11:24:46;;;;;;;1.90;1.50;;;;;;;14.79;77.69;94366.13;4986962;28;20913;-67
2023/10/26 11:27:13;;;;;;;4.73;2.53;;;;;;;14.84;77.15;94369.19;4987067;28;20965;-68
2023/10/26 11:29:40;;;;;;;4.50;2.00;;;;;;;14.78;76.95;94364.47;4986539;28;21020;-68